Time;durP1;ratioP1;P1;durP2;ratioP2;P2;SDS_P1;SDS_P2;PMS_P1;PMS_P2;Temp;Humidity;BMP_temperature;BMP_pressure;BME280_temperature;BME280_humidity;BME280_pressure;Samples;Min_cycle;Max_cycle;Signal;HPM_P1;HPM_P2
2020/12/10 05:19:34;;;;;;;39.80;5.53;;;;;;;;;;4224588;27;20367;-49
2020/12/10 05:22:06;;;;;;;22.23;5.90;;;;;;;;;;4225281;28;20761;-52
2020/12/10 05:24:26;;;;;;;24.23;7.10;;;;;;;;;;4224725;28;20112;-53
2020/12/10 05:26:50;;;;;;;26.65;7.78;;;;;;;;;;4225156;28;20561;-52
2020/12/10 05:29:15;;;;;;;21.10;6.80;;;;;;;;;;4223765;28;20105;-52
2020/12/10 05:31:38;;;;;;;18.60;6.28;;;;;;;;;;4225390;28;20074;-51
2020/12/10 05:34:01;;;;;;;17.63;6.57;;;;;;;;;;4223398;28;20058;-52
2020/12/10 05:36:22;;;;;;;25.13;6.38;;;;;;;;;;4224518;28;20397;-50
2020/12/10 05:39:03;;;;;;;20.83;6.05;;;;;;;;;;4224777;28;20101;-55
2020/12/10 05:41:25;;;;;;;16.85;6.18;;;;;;;;;;4223437;28;20066;-55
2020/12/10 05:43:49;;;;;;;20.73;6.20;;;;;;;;;;4224435;28;20193;-53
2020/12/10 05:46:17;;;;;;;18.65;6.30;;;;;;;;;;4224932;28;20055;-52
2020/12/10 05:48:37;;;;;;;18.65;6.53;;;;;;;;;;4224413;28;20806;-54
2020/12/10 05:51:03;;;;;;;17.45;5.72;;;;;;;;;;4222706;28;20063;-53
2020/12/10 05:53:30;;;;;;;16.27;6.20;;;;;;;;;;4224608;28;20085;-53
2020/12/10 05:55:55;;;;;;;16.73;6.63;;;;;;;;;;4225000;28;20055;-52
2020/12/10 05:58:20;;;;;;;22.75;6.53;;;;;;;;;;4224308;28;20059;-52
2020/12/10 06:00:41;;;;;;;23.27;8.75;;;;;;;;;;4224372;28;20062;-53
2020/12/10 06:03:04;;;;;;;46.35;18.75;;;;;;;;;;4223448;28;20059;-52
2020/12/10 06:05:28;;;;;;;32.08;14.82;;;;;;;;;;4223991;28;20109;-52
2020/12/10 06:08:04;;;;;;;28.83;18.58;;;;;;;;;;4208213;28;20067;-59
2020/12/10 06:10:27;;;;;;;29.80;21.20;;;;;;;;;;4206099;28;20121;-58
2020/12/10 06:12:51;;;;;;;28.80;21.42;;;;;;;;;;4207433;28;20137;-58
2020/12/10 06:15:12;;;;;;;31.27;21.50;;;;;;;;;;4207224;28;20063;-57
2020/12/10 06:17:55;;;;;;;31.77;21.77;;;;;;;;;;4220042;28;20075;-58
2020/12/10 06:20:32;;;;;;;34.03;23.13;;;;;;;;;;4206536;28;20125;-56
2020/12/10 06:22:53;;;;;;;30.90;22.88;;;;;;;;;;4206581;28;20749;-57
2020/12/10 06:25:29;;;;;;;30.55;22.63;;;;;;;;;;4210315;28;20139;-57
2020/12/10 06:27:49;;;;;;;32.17;22.23;;;;;;;;;;4217253;28;20062;-57
2020/12/10 06:30:18;;;;;;;29.20;20.40;;;;;;;;;;4215953;28;20090;-57
2020/12/10 06:32:45;;;;;;;31.95;21.77;;;;;;;;;;4195502;28;20117;-57
2020/12/10 06:35:05;;;;;;;29.63;21.27;;;;;;;;;;4195577;28;20059;-57
2020/12/10 06:37:27;;;;;;;29.13;20.40;;;;;;;;;;4196683;28;20059;-57
2020/12/10 06:39:53;;;;;;;28.60;19.98;;;;;;;;;;4193870;28;20087;-57
2020/12/10 06:42:14;;;;;;;29.17;20.88;;;;;;;;;;4194483;28;20058;-57
2020/12/10 06:44:35;;;;;;;;;;;;;;;;;;4210394;28;20059;-57
2020/12/10 06:46:55;;;;;;;28.73;19.30;;;;;;;;;;4211996;28;19984;-57
2020/12/10 06:49:29;;;;;;;28.67;19.55;;;;;;;;;;4211385;28;20059;-57
2020/12/10 06:52:18;;;;;;;29.67;20.63;;;;;;;;;;4212628;28;20142;-57
2020/12/10 06:55:10;;;;;;;28.35;18.95;;;;;;;;;;4212687;28;20200;-57
2020/12/10 06:58:04;;;;;;;32.55;21.58;;;;;;;;;;4211769;28;20067;-57
2020/12/10 07:00:44;;;;;;;30.27;20.58;;;;;;;;;;4212455;28;20128;-57
2020/12/10 07:03:14;;;;;;;30.05;20.15;;;;;;;;;;4210617;28;20063;-57
2020/12/10 07:05:35;;;;;;;28.40;19.25;;;;;;;;;;4209749;28;20071;-56
2020/12/10 07:08:06;;;;;;;30.15;19.63;;;;;;;;;;4211907;28;20095;-57
2020/12/10 07:10:37;;;;;;;29.38;19.63;;;;;;;;;;4213145;28;20105;-57
2020/12/10 07:12:58;;;;;;;27.13;18.17;;;;;;;;;;4211797;28;20129;-57
2020/12/10 07:15:23;;;;;;;29.20;19.80;;;;;;;;;;4212901;28;20612;-56
2020/12/10 07:17:47;;;;;;;29.30;19.75;;;;;;;;;;4212645;28;20055;-57
2020/12/10 07:20:08;;;;;;;27.60;18.65;;;;;;;;;;4210711;28;20139;-57
2020/12/10 07:22:29;;;;;;;27.98;19.92;;;;;;;;;;4210890;28;20188;-61
2020/12/10 07:24:49;;;;;;;27.42;18.05;;;;;;;;;;4212624;28;20634;-60
2020/12/10 07:27:13;;;;;;;22.65;14.95;;;;;;;;;;4211565;28;20062;-55
2020/12/10 07:29:35;;;;;;;19.08;13.75;;;;;;;;;;4211459;28;20101;-55
2020/12/10 07:31:58;;;;;;;18.85;12.23;;;;;;;;;;4212044;28;20113;-50
2020/12/10 07:34:21;;;;;;;17.50;10.70;;;;;;;;;;4212228;28;20186;-54
2020/12/10 07:36:49;;;;;;;18.25;10.57;;;;;;;;;;4211660;28;20055;-53
2020/12/10 07:39:10;;;;;;;14.98;10.90;;;;;;;;;;4212120;28;20055;-54
2020/12/10 07:41:37;;;;;;;19.48;11.75;;;;;;;;;;4210626;28;20105;-52
2020/12/10 07:44:00;;;;;;;17.67;11.13;;;;;;;;;;4210794;28;20070;-54
2020/12/10 07:46:22;;;;;;;17.05;11.57;;;;;;;;;;4210863;28;20405;-54
2020/12/10 07:48:43;;;;;;;15.93;12.57;;;;;;;;;;4210022;28;20055;-54
2020/12/10 07:51:05;;;;;;;15.30;11.32;;;;;;;;;;4210984;28;20615;-55
2020/12/10 07:53:28;;;;;;;17.52;11.18;;;;;;;;;;4212003;28;20125;-55
2020/12/10 07:55:54;;;;;;;16.60;12.20;;;;;;;;;;4210523;28;20062;-55
2020/12/10 07:58:23;;;;;;;15.52;11.35;;;;;;;;;;4210822;28;20619;-54
2020/12/10 08:00:46;;;;;;;14.95;12.13;;;;;;;;;;4209881;28;20122;-55
2020/12/10 08:03:27;;;;;;;17.95;12.88;;;;;;;;;;4211144;28;20062;-56
2020/12/10 08:06:00;;;;;;;15.48;12.13;;;;;;;;;;4212507;28;20533;-56
2020/12/10 08:08:34;;;;;;;14.18;10.55;;;;;;;;;;4210544;28;20438;-56
2020/12/10 08:11:07;;;;;;;14.63;11.43;;;;;;;;;;4209920;28;20082;-54
2020/12/10 08:13:27;;;;;;;14.85;11.27;;;;;;;;;;4210940;28;20066;-54
2020/12/10 08:15:49;;;;;;;13.73;10.40;;;;;;;;;;4210838;28;20539;-54
2020/12/10 08:18:12;;;;;;;13.75;10.68;;;;;;;;;;4211644;28;20512;-54
2020/12/10 08:20:40;;;;;;;14.63;11.20;;;;;;;;;;4211136;28;20544;-54
2020/12/10 08:23:01;;;;;;;13.20;11.05;;;;;;;;;;4211691;28;20144;-54
2020/12/10 08:25:22;;;;;;;14.52;10.60;;;;;;;;;;4211835;28;20063;-54
2020/12/10 08:27:43;;;;;;;14.20;10.95;;;;;;;;;;4210577;28;20551;-54
2020/12/10 08:30:07;;;;;;;13.90;11.18;;;;;;;;;;4211814;28;20176;-54
2020/12/10 08:32:30;;;;;;;13.80;10.80;;;;;;;;;;4211011;28;20071;-55
2020/12/10 08:35:04;;;;;;;14.27;11.27;;;;;;;;;;4210747;28;20063;-54
2020/12/10 08:37:37;;;;;;;14.32;11.10;;;;;;;;;;4211171;28;20055;-55
2020/12/10 08:39:58;;;;;;;14.88;11.40;;;;;;;;;;4212232;28;20496;-55
2020/12/10 08:42:27;;;;;;;14.00;11.18;;;;;;;;;;4210714;28;20126;-55
2020/12/10 08:44:52;;;;;;;15.32;11.80;;;;;;;;;;4210996;28;20063;-55
2020/12/10 08:47:13;;;;;;;13.20;9.80;;;;;;;;;;4493196;22;20066;-54
2020/12/10 08:49:33;;;;;;;13.95;9.90;;;;;;;;;;4199973;28;20142;-54
2020/12/10 08:51:58;;;;;;;13.70;8.93;;;;;;;;;;4193120;28;20063;-55
2020/12/10 08:54:19;;;;;;;14.20;9.90;;;;;;;;;;4193976;28;20118;-55
2020/12/10 08:56:40;;;;;;;14.40;9.77;;;;;;;;;;4192869;28;20080;-55
2020/12/10 08:59:01;;;;;;;15.73;10.00;;;;;;;;;;4194856;28;20556;-56
2020/12/10 09:01:21;;;;;;;14.27;9.05;;;;;;;;;;4194747;28;20128;-55
2020/12/10 09:03:45;;;;;;;19.00;10.23;;;;;;;;;;4192949;28;20071;-56
2020/12/10 09:06:08;;;;;;;13.77;8.80;;;;;;;;;;4194387;28;20059;-55
2020/12/10 09:08:30;;;;;;;13.20;9.32;;;;;;;;;;4193534;28;20504;-56
2020/12/10 09:10:55;;;;;;;16.95;9.27;;;;;;;;;;4192762;28;20105;-55
2020/12/10 09:13:16;;;;;;;11.50;8.55;;;;;;;;;;4194522;28;20528;-55
2020/12/10 09:15:38;;;;;;;11.55;9.48;;;;;;;;;;4193162;28;20506;-55
2020/12/10 09:17:59;;;;;;;11.88;9.75;;;;;;;;;;4194798;28;20564;-55
2020/12/10 09:20:20;;;;;;;11.85;9.18;;;;;;;;;;4202365;28;20125;-55
2020/12/10 09:22:40;;;;;;;;;;;;;;;;;;4210502;28;20067;-56
2020/12/10 09:25:01;;;;;;;12.03;9.00;;;;;;;;;;4210862;28;20005;-55
2020/12/10 09:27:23;;;;;;;;;;;;;;;;;;4212392;28;20082;-55
2020/12/10 09:29:47;;;;;;;10.52;8.05;;;;;;;;;;4210306;28;19931;-55
2020/12/10 09:32:08;;;;;;;11.25;8.80;;;;;;;;;;4210745;28;20130;-55
2020/12/10 09:34:32;;;;;;;10.80;8.15;;;;;;;;;;4209711;28;20058;-55
2020/12/10 09:36:58;;;;;;;10.68;8.30;;;;;;;;;;4210692;28;20063;-55
2020/12/10 09:39:21;;;;;;;11.40;8.73;;;;;;;;;;4209634;28;20051;-56
2020/12/10 09:41:43;;;;;;;10.57;8.55;;;;;;;;;;4209023;28;20055;-56
2020/12/10 09:44:06;;;;;;;12.45;7.72;;;;;;;;;;4209979;28;20210;-56
2020/12/10 09:46:31;;;;;;;9.73;7.55;;;;;;;;;;4209882;28;20091;-57
2020/12/10 09:48:56;;;;;;;9.82;7.57;;;;;;;;;;4201285;28;20414;-56
2020/12/10 09:51:16;;;;;;;9.88;7.43;;;;;;;;;;4193260;28;20067;-56
2020/12/10 09:53:40;;;;;;;9.35;7.45;;;;;;;;;;4193908;28;20059;-56
2020/12/10 09:56:33;;;;;;;9.40;7.68;;;;;;;;;;4194092;28;20055;-56
2020/12/10 09:58:52;;;;;;;10.52;8.25;;;;;;;;;;4193347;28;20402;-55
2020/12/10 10:01:13;;;;;;;11.27;7.85;;;;;;;;;;4193546;28;20521;-56
2020/12/10 10:03:34;;;;;;;11.43;7.30;;;;;;;;;;4193553;28;20139;-56
2020/12/10 10:05:55;;;;;;;8.35;6.93;;;;;;;;;;4194373;28;20090;-55
2020/12/10 10:08:21;;;;;;;7.93;7.03;;;;;;;;;;4196997;28;20060;-56
2020/12/10 10:10:44;;;;;;;8.30;7.35;;;;;;;;;;4195310;28;20410;-56
2020/12/10 10:13:05;;;;;;;9.82;7.63;;;;;;;;;;4197458;28;20055;-56
2020/12/10 10:15:27;;;;;;;9.57;8.27;;;;;;;;;;4196798;28;20110;-56
2020/12/10 10:17:51;;;;;;;8.73;7.35;;;;;;;;;;4195251;28;20476;-55
2020/12/10 10:20:14;;;;;;;10.75;7.80;;;;;;;;;;4204460;28;20059;-55
2020/12/10 10:22:38;;;;;;;9.57;7.65;;;;;;;;;;4213024;28;20680;-55
2020/12/10 10:24:59;;;;;;;8.40;6.90;;;;;;;;;;4212319;28;20062;-55
2020/12/10 10:27:20;;;;;;;9.40;7.40;;;;;;;;;;4212448;28;20530;-55
2020/12/10 10:29:43;;;;;;;8.52;6.88;;;;;;;;;;4212948;28;20105;-55
2020/12/10 10:32:05;;;;;;;;;;;;;;;;;;4214894;28;20117;-55
2020/12/10 10:34:27;;;;;;;8.52;7.13;;;;;;;;;;4212972;28;19935;-55
2020/12/10 10:36:50;;;;;;;9.30;7.25;;;;;;;;;;4213253;28;20063;-55
2020/12/10 10:39:11;;;;;;;9.35;7.28;;;;;;;;;;4212927;28;20105;-55
2020/12/10 10:41:32;;;;;;;8.43;7.00;;;;;;;;;;4212178;28;20059;-55
2020/12/10 10:43:53;;;;;;;9.95;7.28;;;;;;;;;;4213118;28;20058;-55
2020/12/10 10:46:18;;;;;;;8.73;6.82;;;;;;;;;;4212710;28;20060;-55
2020/12/10 10:48:43;;;;;;;8.32;7.18;;;;;;;;;;4212609;28;20125;-55
2020/12/10 10:51:08;;;;;;;9.13;6.95;;;;;;;;;;4213953;28;20529;-55
2020/12/10 10:53:31;;;;;;;9.02;7.03;;;;;;;;;;4212283;28;20126;-55
2020/12/10 10:55:51;;;;;;;9.25;7.32;;;;;;;;;;4211841;28;20113;-55
2020/12/10 10:58:12;;;;;;;10.43;7.97;;;;;;;;;;4212367;28;20093;-56
2020/12/10 11:00:33;;;;;;;9.38;8.35;;;;;;;;;;4211330;28;20055;-56
2020/12/10 11:02:57;;;;;;;10.32;7.72;;;;;;;;;;4198199;28;20059;-56
2020/12/10 11:05:21;;;;;;;11.57;9.18;;;;;;;;;;4195104;28;20088;-56
2020/12/10 11:07:45;;;;;;;11.23;8.90;;;;;;;;;;4195344;28;20171;-54
2020/12/10 11:10:06;;;;;;;10.77;8.43;;;;;;;;;;4195115;28;20968;-56
2020/12/10 11:12:27;;;;;;;10.18;8.38;;;;;;;;;;4193847;28;20058;-56
2020/12/10 11:14:50;;;;;;;11.48;8.77;;;;;;;;;;4193581;28;20074;-56
2020/12/10 11:17:14;;;;;;;10.32;8.65;;;;;;;;;;4195118;28;20149;-56
2020/12/10 11:19:34;;;;;;;11.02;8.05;;;;;;;;;;4195838;28;20651;-55
2020/12/10 11:21:57;;;;;;;10.50;8.90;;;;;;;;;;4211090;28;20071;-56
2020/12/10 11:24:19;;;;;;;10.75;9.02;;;;;;;;;;4211610;28;20058;-55
2020/12/10 11:27:19;;;;;;;10.55;8.50;;;;;;;;;;4211803;28;20063;-56
2020/12/10 11:29:40;;;;;;;10.80;7.97;;;;;;;;;;4211807;28;20135;-56
2020/12/10 11:32:04;;;;;;;12.52;8.23;;;;;;;;;;4211258;28;20125;-56
2020/12/10 11:34:25;;;;;;;10.10;8.25;;;;;;;;;;4212161;28;20505;-55
2020/12/10 11:36:48;;;;;;;10.82;7.80;;;;;;;;;;4211919;28;20058;-52
2020/12/10 11:39:08;;;;;;;8.63;7.38;;;;;;;;;;4211759;28;20059;-52
2020/12/10 11:41:30;;;;;;;10.38;7.65;;;;;;;;;;4210651;28;20067;-51
2020/12/10 11:43:54;;;;;;;8.73;7.15;;;;;;;;;;4212102;28;20055;-53
2020/12/10 11:46:15;;;;;;;9.38;7.45;;;;;;;;;;4212013;28;20111;-53
2020/12/10 11:48:35;;;;;;;;;;;;;;;;;;4210854;28;20058;-49
2020/12/10 11:50:56;;;;;;;12.57;7.85;;;;;;;;;;4211738;28;19930;-57
2020/12/10 11:53:17;;;;;;;14.02;7.30;;;;;;;;;;4212061;28;20063;-57
2020/12/10 11:55:38;;;;;;;;;;;;;;;;;;4205940;28;20051;-55
2020/12/10 11:57:59;;;;;;;10.85;7.75;;;;;;;;;;4203246;28;19968;-48
2020/12/10 12:00:23;;;;;;;14.05;7.68;;;;;;;;;;4192462;28;20064;-48
2020/12/10 12:02:44;;;;;;;9.65;7.68;;;;;;;;;;4193108;28;20140;-49
2020/12/10 12:05:05;;;;;;;8.40;6.75;;;;;;;;;;4194924;28;20075;-47
2020/12/10 12:07:29;;;;;;;9.68;6.43;;;;;;;;;;4194820;28;20068;-47
2020/12/10 12:09:49;;;;;;;11.85;6.22;;;;;;;;;;4193351;28;20564;-47
2020/12/10 12:12:10;;;;;;;10.52;6.60;;;;;;;;;;4194374;28;20062;-48
2020/12/10 12:14:32;;;;;;;9.23;5.97;;;;;;;;;;4193151;28;20063;-47
2020/12/10 12:16:52;;;;;;;9.50;5.80;;;;;;;;;;4192688;28;20059;-48
2020/12/10 12:19:13;;;;;;;9.15;6.55;;;;;;;;;;4207288;28;20055;-50
2020/12/10 12:21:33;;;;;;;9.77;6.05;;;;;;;;;;4193341;28;20126;-49
2020/12/10 12:23:55;;;;;;;8.25;5.38;;;;;;;;;;4192135;28;20573;-48
2020/12/10 12:26:23;;;;;;;7.35;5.88;;;;;;;;;;4206376;28;20124;-48
2020/12/10 12:28:44;;;;;;;6.15;5.32;;;;;;;;;;4208110;28;20055;-47
2020/12/10 12:31:08;;;;;;;9.57;5.55;;;;;;;;;;4203005;28;20139;-55
2020/12/10 12:33:32;;;;;;;9.95;5.22;;;;;;;;;;4206564;28;20066;-56
2020/12/10 12:35:53;;;;;;;9.38;6.03;;;;;;;;;;4205703;28;20051;-57
2020/12/10 12:38:14;;;;;;;9.25;5.53;;;;;;;;;;4206217;28;20063;-56
2020/12/10 12:40:37;;;;;;;8.95;5.82;;;;;;;;;;4202540;28;20136;-55
2020/12/10 12:43:00;;;;;;;9.63;5.47;;;;;;;;;;4198866;28;20047;-53
2020/12/10 12:45:24;;;;;;;9.48;5.38;;;;;;;;;;4200587;28;20122;-52
2020/12/10 12:47:46;;;;;;;8.98;5.43;;;;;;;;;;4202289;28;20136;-53
2020/12/10 12:50:06;;;;;;;8.95;5.55;;;;;;;;;;4207786;28;20106;-53
2020/12/10 12:52:30;;;;;;;8.93;5.70;;;;;;;;;;4208352;28;20066;-53
2020/12/10 12:54:54;;;;;;;7.95;5.15;;;;;;;;;;4210059;28;20158;-53
2020/12/10 12:57:15;;;;;;;6.00;5.30;;;;;;;;;;4210293;28;20066;-52
2020/12/10 12:59:39;;;;;;;12.00;5.20;;;;;;;;;;4210010;28;20054;-53
2020/12/10 13:02:02;;;;;;;7.68;5.57;;;;;;;;;;4209535;28;20140;-53
2020/12/10 13:04:28;;;;;;;7.70;5.43;;;;;;;;;;4190610;28;20114;-52
2020/12/10 13:06:49;;;;;;;9.93;5.93;;;;;;;;;;4192765;28;20055;-53
2020/12/10 13:09:10;;;;;;;7.95;5.82;;;;;;;;;;4193382;28;20062;-53
2020/12/10 13:11:31;;;;;;;6.47;5.30;;;;;;;;;;4192537;28;20059;-53
2020/12/10 13:13:54;;;;;;;8.20;5.22;;;;;;;;;;4192203;28;20059;-52
2020/12/10 13:16:14;;;;;;;11.85;5.97;;;;;;;;;;4191965;28;20063;-53
2020/12/10 13:18:38;;;;;;;8.52;5.97;;;;;;;;;;4193008;28;20133;-53
2020/12/10 13:21:01;;;;;;;7.88;6.03;;;;;;;;;;4193654;28;20078;-52
2020/12/10 13:23:21;;;;;;;8.40;5.75;;;;;;;;;;4206378;28;20547;-53
2020/12/10 13:25:46;;;;;;;10.50;5.70;;;;;;;;;;4203683;28;20054;-51
2020/12/10 13:28:09;;;;;;;9.07;5.80;;;;;;;;;;4208126;28;20135;-53
2020/12/10 13:30:33;;;;;;;7.75;5.07;;;;;;;;;;4192969;28;20047;-52
2020/12/10 13:32:54;;;;;;;8.13;5.82;;;;;;;;;;4192579;28;20056;-52
2020/12/10 13:35:19;;;;;;;;;;;;;;;;;;4204459;28;20051;-53
2020/12/10 13:37:41;;;;;;;6.65;5.13;;;;;;;;;;4208037;28;20352;-52
2020/12/10 13:40:02;;;;;;;8.15;5.38;;;;;;;;;;4202729;28;20461;-48
2020/12/10 13:42:22;;;;;;;7.72;5.55;;;;;;;;;;4208711;28;20063;-50
2020/12/10 13:44:46;;;;;;;9.77;5.45;;;;;;;;;;4210181;28;20126;-47
2020/12/10 13:47:07;;;;;;;7.15;5.40;;;;;;;;;;4212133;28;20067;-49
2020/12/10 13:49:35;;;;;;;7.57;5.30;;;;;;;;;;4195800;28;20059;-51
2020/12/10 13:51:55;;;;;;;8.23;5.25;;;;;;;;;;4198727;28;20063;-50
2020/12/10 13:54:18;;;;;;;7.38;5.05;;;;;;;;;;4212386;28;20135;-48
2020/12/10 13:56:41;;;;;;;6.72;4.75;;;;;;;;;;4213682;28;20058;-49
2020/12/10 13:59:04;;;;;;;6.47;4.85;;;;;;;;;;4198244;28;20414;-50
2020/12/10 14:01:30;;;;;;;;;;;;;;;;;;4210937;28;20449;-50
2020/12/10 14:03:52;;;;;;;6.30;4.47;;;;;;;;;;4196340;28;20016;-48
2020/12/10 14:06:19;;;;;;;5.93;4.68;;;;;;;;;;4201665;28;20062;-49
2020/12/10 14:08:42;;;;;;;6.97;4.80;;;;;;;;;;4201346;28;20517;-48
2020/12/10 14:11:08;;;;;;;8.43;4.50;;;;;;;;;;4199630;28;20410;-49
2020/12/10 14:13:29;;;;;;;7.50;5.63;;;;;;;;;;4194922;28;20059;-51
2020/12/10 14:15:50;;;;;;;7.53;4.88;;;;;;;;;;4196194;28;20059;-48
2020/12/10 14:18:10;;;;;;;7.63;5.40;;;;;;;;;;4196623;28;20572;-48
2020/12/10 14:20:34;;;;;;;6.90;4.93;;;;;;;;;;4195557;28;20063;-49
2020/12/10 14:23:02;;;;;;;8.18;4.78;;;;;;;;;;4197701;28;20524;-56
2020/12/10 14:25:31;;;;;;;7.30;5.13;;;;;;;;;;4197531;28;20098;-56
2020/12/10 14:27:56;;;;;;;5.97;4.35;;;;;;;;;;4197401;28;20672;-57
2020/12/10 14:30:19;;;;;;;10.00;4.85;;;;;;;;;;4196682;28;20054;-56
2020/12/10 14:32:40;;;;;;;8.32;5.03;;;;;;;;;;4196370;28;20055;-56
2020/12/10 14:35:10;;;;;;;7.47;4.55;;;;;;;;;;4194431;28;20134;-56
2020/12/10 14:37:30;;;;;;;10.43;5.30;;;;;;;;;;4214059;28;20158;-56
2020/12/10 14:39:53;;;;;;;7.28;4.55;;;;;;;;;;4214082;28;20097;-56
2020/12/10 14:42:14;;;;;;;6.28;4.45;;;;;;;;;;4212063;28;20684;-57
2020/12/10 14:44:38;;;;;;;8.02;4.35;;;;;;;;;;4214223;28;20105;-56
2020/12/10 14:47:00;;;;;;;6.97;4.70;;;;;;;;;;4213953;28;20062;-57
2020/12/10 14:49:24;;;;;;;7.60;4.80;;;;;;;;;;4214397;28;20422;-57
2020/12/10 14:51:47;;;;;;;9.13;5.25;;;;;;;;;;4212618;28;20074;-58
2020/12/10 14:54:08;;;;;;;7.38;4.40;;;;;;;;;;4214307;28;20055;-58
2020/12/10 14:56:32;;;;;;;7.78;5.30;;;;;;;;;;4201903;28;20548;-57
2020/12/10 14:58:53;;;;;;;7.95;4.13;;;;;;;;;;4197390;28;20058;-58
2020/12/10 15:01:21;;;;;;;10.95;4.68;;;;;;;;;;4197246;28;20094;-57
2020/12/10 15:03:41;;;;;;;11.05;5.45;;;;;;;;;;4196186;28;20141;-57
2020/12/10 15:06:04;;;;;;;8.45;5.30;;;;;;;;;;4194342;28;20414;-51
2020/12/10 15:08:25;;;;;;;7.05;4.63;;;;;;;;;;4204237;28;20117;-50
2020/12/10 15:10:48;;;;;;;5.38;4.43;;;;;;;;;;4207876;28;20136;-57
2020/12/10 15:13:09;;;;;;;;;;;;;;;;;;4212398;28;20055;-57
2020/12/10 15:15:32;;;;;;;9.45;5.47;;;;;;;;;;4212010;28;19927;-57
2020/12/10 15:17:55;;;;;;;10.48;4.63;;;;;;;;;;4211244;28;20071;-57
2020/12/10 15:20:18;;;;;;;7.45;4.50;;;;;;;;;;4205348;28;20062;-56
2020/12/10 15:22:39;;;;;;;6.07;4.32;;;;;;;;;;4207372;28;20405;-48
2020/12/10 15:25:03;;;;;;;7.65;4.55;;;;;;;;;;4214285;28;20055;-49
2020/12/10 15:27:23;;;;;;;8.50;4.85;;;;;;;;;;4213350;28;20059;-48
2020/12/10 15:29:44;;;;;;;9.32;5.00;;;;;;;;;;4214164;28;20050;-50
2020/12/10 15:32:07;;;;;;;7.95;5.10;;;;;;;;;;4214157;28;20063;-48
2020/12/10 15:34:32;;;;;;;8.13;5.22;;;;;;;;;;4212682;28;20059;-48
2020/12/10 15:36:55;;;;;;;8.10;4.57;;;;;;;;;;4208974;28;20066;-47
2020/12/10 15:39:19;;;;;;;6.35;4.50;;;;;;;;;;4212728;28;20051;-49
2020/12/10 15:41:42;;;;;;;7.18;5.10;;;;;;;;;;4213101;28;20058;-48
2020/12/10 15:44:02;;;;;;;7.75;5.03;;;;;;;;;;4212942;28;20054;-48
2020/12/10 15:46:30;;;;;;;7.25;4.90;;;;;;;;;;4213417;28;20462;-50
2020/12/10 15:48:54;;;;;;;9.00;5.35;;;;;;;;;;4212863;28;20059;-48
2020/12/10 15:51:16;;;;;;;5.75;3.78;;;;;;;;;;4213993;28;20398;-51
2020/12/10 15:53:36;;;;;;;10.48;4.63;;;;;;;;;;4213923;28;20097;-48
2020/12/10 15:56:01;;;;;;;5.82;4.38;;;;;;;;;;4213890;28;20055;-51
2020/12/10 15:58:22;;;;;;;7.13;4.00;;;;;;;;;;4212638;28;20055;-50
2020/12/10 16:00:47;;;;;;;6.28;3.88;;;;;;;;;;4212497;28;20054;-48
2020/12/10 16:03:07;;;;;;;7.95;4.13;;;;;;;;;;4212822;28;20063;-50
2020/12/10 16:05:28;;;;;;;6.50;4.78;;;;;;;;;;4213570;28;20117;-50
2020/12/10 16:07:49;;;;;;;7.38;4.78;;;;;;;;;;4214287;28;20059;-51
2020/12/10 16:10:10;;;;;;;7.07;3.95;;;;;;;;;;4214328;28;20650;-50
2020/12/10 16:12:31;;;;;;;6.68;4.55;;;;;;;;;;4214261;28;20063;-51
2020/12/10 16:15:01;;;;;;;6.00;4.10;;;;;;;;;;4213999;28;20149;-48
2020/12/10 16:17:26;;;;;;;5.57;4.20;;;;;;;;;;4213795;28;20155;-49
2020/12/10 16:19:48;;;;;;;5.75;4.63;;;;;;;;;;4212686;28;20059;-50
2020/12/10 16:22:08;;;;;;;5.85;3.80;;;;;;;;;;4212768;28;20564;-48
2020/12/10 16:24:33;;;;;;;6.78;5.07;;;;;;;;;;4212759;28;20111;-49
2020/12/10 16:26:56;;;;;;;5.97;4.47;;;;;;;;;;4213253;28;20055;-48
2020/12/10 16:29:20;;;;;;;5.80;3.97;;;;;;;;;;4213762;28;20074;-52
2020/12/10 16:31:52;;;;;;;4.65;3.70;;;;;;;;;;4213666;28;20114;-50
2020/12/10 16:34:19;;;;;;;5.07;4.20;;;;;;;;;;4212548;28;20059;-50
2020/12/10 16:36:41;;;;;;;6.13;4.45;;;;;;;;;;4213627;28;20144;-50
2020/12/10 16:39:05;;;;;;;6.38;4.47;;;;;;;;;;4213598;28;20106;-50
2020/12/10 16:41:32;;;;;;;5.65;4.07;;;;;;;;;;4213614;28;20426;-51
2020/12/10 16:43:55;;;;;;;5.45;3.92;;;;;;;;;;4213644;28;20113;-50
2020/12/10 16:46:17;;;;;;;5.95;3.80;;;;;;;;;;4212082;28;20105;-51
2020/12/10 16:48:46;;;;;;;4.03;3.63;;;;;;;;;;4213555;28;20138;-50
2020/12/10 16:51:07;;;;;;;4.95;4.00;;;;;;;;;;4213407;28;20513;-49
2020/12/10 16:53:31;;;;;;;;;;;;;;;;;;4213882;28;20063;-50
2020/12/10 16:55:56;;;;;;;6.88;4.35;;;;;;;;;;4212430;28;19953;-49
2020/12/10 16:58:22;;;;;;;5.50;4.38;;;;;;;;;;4213407;28;20129;-50
2020/12/10 17:00:46;;;;;;;7.15;4.50;;;;;;;;;;4212023;28;20055;-48
2020/12/10 17:03:09;;;;;;;4.88;4.10;;;;;;;;;;4213190;28;20529;-50
2020/12/10 17:05:30;;;;;;;6.20;4.30;;;;;;;;;;4211993;28;20114;-50
2020/12/10 17:07:59;;;;;;;4.40;3.50;;;;;;;;;;4213312;28;20472;-47
2020/12/10 17:10:22;;;;;;;4.82;3.92;;;;;;;;;;4213182;28;20055;-48
2020/12/10 17:12:43;;;;;;;5.32;4.30;;;;;;;;;;4211567;28;20604;-48
2020/12/10 17:15:08;;;;;;;5.35;4.25;;;;;;;;;;4212927;28;20059;-48
2020/12/10 17:17:34;;;;;;;4.43;3.63;;;;;;;;;;4213196;28;20075;-49
2020/12/10 17:19:57;;;;;;;4.88;4.18;;;;;;;;;;4212036;28;20055;-48
2020/12/10 17:22:19;;;;;;;;;;;;;;;;;;4213613;28;20059;-51
2020/12/10 17:24:50;;;;;;;4.75;3.60;;;;;;;;;;4213116;28;19969;-50
2020/12/10 17:27:10;;;;;;;4.43;3.72;;;;;;;;;;4211798;28;20140;-50
2020/12/10 17:29:34;;;;;;;6.22;4.35;;;;;;;;;;4205388;28;20125;-48
2020/12/10 17:31:55;;;;;;;6.70;4.20;;;;;;;;;;4204014;28;20202;-49
2020/12/10 17:34:16;;;;;;;8.25;5.45;;;;;;;;;;4200193;28;20063;-45
2020/12/10 17:36:42;;;;;;;5.70;4.70;;;;;;;;;;4201887;28;20060;-46
2020/12/10 17:39:03;;;;;;;7.38;4.57;;;;;;;;;;4198369;28;20102;-45
2020/12/10 17:41:26;;;;;;;6.00;4.88;;;;;;;;;;4198491;28;20064;-45
2020/12/10 17:43:47;;;;;;;6.55;4.60;;;;;;;;;;4210474;28;20066;-45
2020/12/10 17:46:10;;;;;;;5.60;4.50;;;;;;;;;;4208207;28;20059;-46
2020/12/10 17:48:34;;;;;;;6.15;4.40;;;;;;;;;;4198370;28;20059;-45
2020/12/10 17:50:54;;;;;;;;;;;;;;;;;;4208171;28;20650;-45
2020/12/10 17:53:17;;;;;;;5.25;4.28;;;;;;;;;;4209485;28;19931;-44
2020/12/10 17:55:38;;;;;;;5.38;4.03;;;;;;;;;;4210668;28;20410;-45
2020/12/10 17:57:59;;;;;;;7.13;4.80;;;;;;;;;;4205066;28;20574;-48
2020/12/10 18:00:22;;;;;;;6.30;4.15;;;;;;;;;;4210406;28;20114;-51
2020/12/10 18:02:43;;;;;;;6.35;4.25;;;;;;;;;;4211590;28;20050;-49
2020/12/10 18:05:16;;;;;;;7.00;4.30;;;;;;;;;;4211511;28;20598;-51
2020/12/10 18:07:36;;;;;;;5.72;4.15;;;;;;;;;;4209651;28;20058;-49
2020/12/10 18:09:57;;;;;;;6.53;5.00;;;;;;;;;;4212607;28;20059;-51
2020/12/10 18:12:18;;;;;;;7.03;4.35;;;;;;;;;;4208096;28;20119;-48
2020/12/10 18:14:38;;;;;;;6.18;4.82;;;;;;;;;;4204402;28;20056;-48
2020/12/10 18:17:03;;;;;;;6.15;4.20;;;;;;;;;;4204400;28;20551;-53
2020/12/10 18:19:25;;;;;;;7.70;5.28;;;;;;;;;;4209963;28;20050;-51
2020/12/10 18:21:55;;;;;;;8.52;4.75;;;;;;;;;;4211023;28;20054;-53
2020/12/10 18:24:18;;;;;;;8.02;5.00;;;;;;;;;;4212201;28;20051;-52
2020/12/10 18:26:39;;;;;;;6.35;5.20;;;;;;;;;;4214043;28;20055;-52
2020/12/10 18:29:02;;;;;;;9.90;5.38;;;;;;;;;;4214096;28;20417;-53
2020/12/10 18:31:27;;;;;;;8.52;5.65;;;;;;;;;;4213339;28;20516;-53
2020/12/10 18:33:50;;;;;;;6.65;4.80;;;;;;;;;;4210412;28;20136;-53
2020/12/10 18:36:14;;;;;;;7.80;5.18;;;;;;;;;;4205204;28;20073;-52
2020/12/10 18:38:36;;;;;;;7.00;4.80;;;;;;;;;;4205005;28;20079;-53
2020/12/10 18:40:59;;;;;;;9.13;5.72;;;;;;;;;;4203891;28;20056;-53
2020/12/10 18:43:19;;;;;;;8.40;5.15;;;;;;;;;;4209143;28;20055;-51
2020/12/10 18:45:40;;;;;;;;;;;;;;;;;;4207173;28;20063;-53
2020/12/10 18:48:00;;;;;;;10.38;5.57;;;;;;;;;;4204793;28;19936;-48
2020/12/10 18:50:21;;;;;;;11.32;5.95;;;;;;;;;;4207002;28;20058;-55
2020/12/10 18:52:43;;;;;;;14.13;9.88;;;;;;;;;;4206558;28;20110;-56
2020/12/10 18:55:06;;;;;;;12.38;10.15;;;;;;;;;;4207029;28;20055;-55
2020/12/10 18:57:28;;;;;;;12.48;9.93;;;;;;;;;;4206317;28;20062;-55
2020/12/10 18:59:49;;;;;;;12.30;10.63;;;;;;;;;;4206234;28;20059;-56
